sensor_id;sensor_type;location;lat;lon;timestamp;P1;durP1;ratioP1;P2;durP2;ratioP2
7375;SDS011;3728;42.266;24.944;2024-01-25T00:01:28;15.80;;;10.97;;
7375;SDS011;3728;42.266;24.944;2024-01-25T00:03:55;29.90;;;15.53;;
7375;SDS011;3728;42.266;24.944;2024-01-25T00:06:22;43.53;;;21.03;;
7375;SDS011;3728;42.266;24.944;2024-01-25T00:08:49;31.50;;;16.67;;
7375;SDS011;3728;42.266;24.944;2024-01-25T00:11:16;28.47;;;15.17;;
7375;SDS011;3728;42.266;24.944;2024-01-25T00:13:43;26.97;;;12.50;;
7375;SDS011;3728;42.266;24.944;2024-01-25T00:16:10;19.93;;;10.60;;
7375;SDS011;3728;42.266;24.944;2024-01-25T00:18:37;12.63;;;8.77;;
7375;SDS011;3728;42.266;24.944;2024-01-25T00:21:07;13.67;;;9.90;;
7375;SDS011;3728;42.266;24.944;2024-01-25T00:23:34;41.57;;;21.60;;
7375;SDS011;3728;42.266;24.944;2024-01-25T00:26:01;37.33;;;20.43;;
7375;SDS011;3728;42.266;24.944;2024-01-25T00:28:28;28.77;;;19.27;;
7375;SDS011;3728;42.266;24.944;2024-01-25T00:30:55;34.07;;;21.17;;
7375;SDS011;3728;42.266;24.944;2024-01-25T00:33:22;34.23;;;22.50;;
7375;SDS011;3728;42.266;24.944;2024-01-25T00:35:50;35.50;;;21.20;;
7375;SDS011;3728;42.266;24.944;2024-01-25T00:38:17;38.47;;;23.23;;
7375;SDS011;3728;42.266;24.944;2024-01-25T00:40:44;43.10;;;23.00;;
7375;SDS011;3728;42.266;24.944;2024-01-25T00:43:12;40.17;;;23.23;;
7375;SDS011;3728;42.266;24.944;2024-01-25T00:45:39;33.37;;;18.77;;
7375;SDS011;3728;42.266;24.944;2024-01-25T00:48:06;35.80;;;19.73;;
7375;SDS011;3728;42.266;24.944;2024-01-25T00:50:34;32.27;;;19.17;;
7375;SDS011;3728;42.266;24.944;2024-01-25T00:53:01;33.43;;;18.47;;
7375;SDS011;3728;42.266;24.944;2024-01-25T00:55:29;32.93;;;19.73;;
7375;SDS011;3728;42.266;24.944;2024-01-25T00:57:56;32.80;;;19.13;;
7375;SDS011;3728;42.266;24.944;2024-01-25T01:00:23;34.47;;;17.63;;
7375;SDS011;3728;42.266;24.944;2024-01-25T01:02:50;29.17;;;18.73;;
7375;SDS011;3728;42.266;24.944;2024-01-25T01:05:20;26.30;;;16.30;;
7375;SDS011;3728;42.266;24.944;2024-01-25T01:07:47;24.47;;;15.03;;
7375;SDS011;3728;42.266;24.944;2024-01-25T01:10:16;24.30;;;14.73;;
7375;SDS011;3728;42.266;24.944;2024-01-25T01:12:44;20.73;;;13.10;;
7375;SDS011;3728;42.266;24.944;2024-01-25T01:15:11;18.77;;;11.83;;
7375;SDS011;3728;42.266;24.944;2024-01-25T01:17:38;16.17;;;10.40;;
7375;SDS011;3728;42.266;24.944;2024-01-25T01:20:05;17.30;;;11.87;;
7375;SDS011;3728;42.266;24.944;2024-01-25T01:22:33;18.87;;;11.53;;
7375;SDS011;3728;42.266;24.944;2024-01-25T01:25:00;17.67;;;11.93;;
7375;SDS011;3728;42.266;24.944;2024-01-25T01:27:27;22.63;;;13.77;;
7375;SDS011;3728;42.266;24.944;2024-01-25T01:29:54;27.13;;;15.87;;
7375;SDS011;3728;42.266;24.944;2024-01-25T01:32:21;34.63;;;19.80;;
7375;SDS011;3728;42.266;24.944;2024-01-25T01:34:48;73.20;;;36.50;;
7375;SDS011;3728;42.266;24.944;2024-01-25T01:37:15;112.53;;;50.93;;
7375;SDS011;3728;42.266;24.944;2024-01-25T01:39:42;98.57;;;48.30;;
7375;SDS011;3728;42.266;24.944;2024-01-25T01:42:10;78.53;;;39.73;;
7375;SDS011;3728;42.266;24.944;2024-01-25T01:44:37;68.97;;;37.77;;
7375;SDS011;3728;42.266;24.944;2024-01-25T01:47:06;48.77;;;26.77;;
7375;SDS011;3728;42.266;24.944;2024-01-25T01:49:34;58.53;;;30.73;;
7375;SDS011;3728;42.266;24.944;2024-01-25T01:52:01;31.07;;;18.27;;
7375;SDS011;3728;42.266;24.944;2024-01-25T01:54:32;31.60;;;16.77;;
7375;SDS011;3728;42.266;24.944;2024-01-25T01:57:00;25.63;;;15.43;;
7375;SDS011;3728;42.266;24.944;2024-01-25T01:59:28;18.73;;;11.67;;
7375;SDS011;3728;42.266;24.944;2024-01-25T02:01:55;18.23;;;11.87;;
7375;SDS011;3728;42.266;24.944;2024-01-25T02:04:22;13.87;;;9.80;;
7375;SDS011;3728;42.266;24.944;2024-01-25T02:06:53;11.17;;;8.57;;
7375;SDS011;3728;42.266;24.944;2024-01-25T02:09:21;13.30;;;9.00;;
7375;SDS011;3728;42.266;24.944;2024-01-25T02:11:58;10.03;;;7.23;;
7375;SDS011;3728;42.266;24.944;2024-01-25T02:14:26;11.17;;;8.10;;
7375;SDS011;3728;42.266;24.944;2024-01-25T02:16:53;15.13;;;10.17;;
7375;SDS011;3728;42.266;24.944;2024-01-25T02:19:20;11.93;;;8.20;;
7375;SDS011;3728;42.266;24.944;2024-01-25T02:21:47;9.07;;;7.23;;
7375;SDS011;3728;42.266;24.944;2024-01-25T02:24:15;13.43;;;7.77;;
7375;SDS011;3728;42.266;24.944;2024-01-25T02:26:42;12.73;;;8.00;;
7375;SDS011;3728;42.266;24.944;2024-01-25T02:29:11;11.77;;;9.10;;
7375;SDS011;3728;42.266;24.944;2024-01-25T02:31:38;9.57;;;7.23;;
7375;SDS011;3728;42.266;24.944;2024-01-25T02:34:05;12.93;;;9.00;;
7375;SDS011;3728;42.266;24.944;2024-01-25T02:36:32;12.97;;;8.33;;
7375;SDS011;3728;42.266;24.944;2024-01-25T02:38:59;11.03;;;7.97;;
7375;SDS011;3728;42.266;24.944;2024-01-25T02:41:28;11.00;;;7.90;;
7375;SDS011;3728;42.266;24.944;2024-01-25T02:43:56;9.40;;;6.87;;
7375;SDS011;3728;42.266;24.944;2024-01-25T02:46:23;7.97;;;6.40;;
7375;SDS011;3728;42.266;24.944;2024-01-25T02:48:50;7.87;;;6.07;;
7375;SDS011;3728;42.266;24.944;2024-01-25T02:51:17;12.33;;;7.87;;
7375;SDS011;3728;42.266;24.944;2024-01-25T02:53:44;8.80;;;6.80;;
7375;SDS011;3728;42.266;24.944;2024-01-25T02:56:11;5.87;;;4.87;;
7375;SDS011;3728;42.266;24.944;2024-01-25T02:58:38;6.33;;;4.27;;
7375;SDS011;3728;42.266;24.944;2024-01-25T03:01:05;7.00;;;4.10;;
7375;SDS011;3728;42.266;24.944;2024-01-25T03:03:32;5.17;;;4.10;;
7375;SDS011;3728;42.266;24.944;2024-01-25T03:05:59;5.00;;;3.20;;
7375;SDS011;3728;42.266;24.944;2024-01-25T03:08:27;4.07;;;3.40;;
7375;SDS011;3728;42.266;24.944;2024-01-25T03:10:54;4.20;;;3.00;;
7375;SDS011;3728;42.266;24.944;2024-01-25T03:13:21;4.63;;;3.07;;
7375;SDS011;3728;42.266;24.944;2024-01-25T03:15:48;5.27;;;2.53;;
7375;SDS011;3728;42.266;24.944;2024-01-25T03:18:17;4.00;;;2.27;;
7375;SDS011;3728;42.266;24.944;2024-01-25T03:20:44;4.67;;;2.70;;
7375;SDS011;3728;42.266;24.944;2024-01-25T03:23:11;5.90;;;2.70;;
7375;SDS011;3728;42.266;24.944;2024-01-25T03:25:38;4.80;;;3.13;;
7375;SDS011;3728;42.266;24.944;2024-01-25T03:28:05;7.37;;;4.30;;
7375;SDS011;3728;42.266;24.944;2024-01-25T03:30:33;2.67;;;2.37;;
7375;SDS011;3728;42.266;24.944;2024-01-25T03:33:00;5.87;;;2.40;;
7375;SDS011;3728;42.266;24.944;2024-01-25T03:35:27;2.70;;;2.27;;
7375;SDS011;3728;42.266;24.944;2024-01-25T03:37:54;3.47;;;3.07;;
7375;SDS011;3728;42.266;24.944;2024-01-25T03:40:21;4.60;;;4.00;;
7375;SDS011;3728;42.266;24.944;2024-01-25T03:42:49;3.87;;;2.80;;
7375;SDS011;3728;42.266;24.944;2024-01-25T03:45:34;3.60;;;2.40;;
7375;SDS011;3728;42.266;24.944;2024-01-25T03:48:01;2.50;;;2.30;;
7375;SDS011;3728;42.266;24.944;2024-01-25T03:50:28;3.43;;;2.43;;
7375;SDS011;3728;42.266;24.944;2024-01-25T03:52:55;4.50;;;3.03;;
7375;SDS011;3728;42.266;24.944;2024-01-25T03:55:22;5.37;;;3.20;;
7375;SDS011;3728;42.266;24.944;2024-01-25T03:57:49;5.00;;;2.43;;
7375;SDS011;3728;42.266;24.944;2024-01-25T04:00:16;5.37;;;3.37;;
7375;SDS011;3728;42.266;24.944;2024-01-25T04:02:43;4.97;;;2.10;;
7375;SDS011;3728;42.266;24.944;2024-01-25T04:05:11;3.17;;;1.73;;
7375;SDS011;3728;42.266;24.944;2024-01-25T04:07:41;2.00;;;1.60;;
7375;SDS011;3728;42.266;24.944;2024-01-25T04:10:08;4.43;;;2.20;;
7375;SDS011;3728;42.266;24.944;2024-01-25T04:12:36;2.67;;;2.23;;
7375;SDS011;3728;42.266;24.944;2024-01-25T04:15:03;2.17;;;1.60;;
7375;SDS011;3728;42.266;24.944;2024-01-25T04:17:30;2.60;;;2.00;;
7375;SDS011;3728;42.266;24.944;2024-01-25T04:19:58;3.77;;;2.30;;
7375;SDS011;3728;42.266;24.944;2024-01-25T04:22:26;3.50;;;2.30;;
7375;SDS011;3728;42.266;24.944;2024-01-25T04:24:54;5.30;;;2.20;;
7375;SDS011;3728;42.266;24.944;2024-01-25T04:27:22;3.03;;;2.23;;
7375;SDS011;3728;42.266;24.944;2024-01-25T04:29:50;4.87;;;3.63;;
7375;SDS011;3728;42.266;24.944;2024-01-25T04:32:17;9.07;;;5.73;;
7375;SDS011;3728;42.266;24.944;2024-01-25T04:34:44;9.27;;;6.20;;
7375;SDS011;3728;42.266;24.944;2024-01-25T04:37:14;6.07;;;4.10;;
7375;SDS011;3728;42.266;24.944;2024-01-25T04:39:41;4.07;;;2.50;;
7375;SDS011;3728;42.266;24.944;2024-01-25T04:42:08;2.40;;;1.90;;
7375;SDS011;3728;42.266;24.944;2024-01-25T04:44:35;3.20;;;2.10;;
7375;SDS011;3728;42.266;24.944;2024-01-25T04:47:03;2.10;;;2.00;;
7375;SDS011;3728;42.266;24.944;2024-01-25T04:49:30;3.50;;;2.17;;
7375;SDS011;3728;42.266;24.944;2024-01-25T04:51:57;4.23;;;2.03;;
7375;SDS011;3728;42.266;24.944;2024-01-25T04:54:24;2.57;;;1.50;;
7375;SDS011;3728;42.266;24.944;2024-01-25T04:56:51;1.93;;;1.70;;
7375;SDS011;3728;42.266;24.944;2024-01-25T04:59:18;2.97;;;2.33;;
7375;SDS011;3728;42.266;24.944;2024-01-25T05:01:45;4.70;;;2.23;;
7375;SDS011;3728;42.266;24.944;2024-01-25T05:04:12;3.97;;;2.40;;
7375;SDS011;3728;42.266;24.944;2024-01-25T05:06:42;4.93;;;3.03;;
7375;SDS011;3728;42.266;24.944;2024-01-25T05:09:09;3.10;;;2.37;;
7375;SDS011;3728;42.266;24.944;2024-01-25T05:11:38;5.37;;;3.00;;
7375;SDS011;3728;42.266;24.944;2024-01-25T05:14:06;5.50;;;3.10;;
7375;SDS011;3728;42.266;24.944;2024-01-25T05:16:33;1.83;;;1.70;;
7375;SDS011;3728;42.266;24.944;2024-01-25T05:19:02;2.30;;;1.60;;
7375;SDS011;3728;42.266;24.944;2024-01-25T05:21:29;3.80;;;1.50;;
7375;SDS011;3728;42.266;24.944;2024-01-25T05:23:56;2.00;;;1.37;;
7375;SDS011;3728;42.266;24.944;2024-01-25T05:26:23;3.13;;;1.57;;
7375;SDS011;3728;42.266;24.944;2024-01-25T05:28:50;3.17;;;2.00;;
7375;SDS011;3728;42.266;24.944;2024-01-25T05:31:17;4.00;;;2.20;;
7375;SDS011;3728;42.266;24.944;2024-01-25T05:33:44;2.83;;;1.93;;
7375;SDS011;3728;42.266;24.944;2024-01-25T05:36:11;4.80;;;2.60;;
7375;SDS011;3728;42.266;24.944;2024-01-25T05:38:43;3.00;;;2.07;;
7375;SDS011;3728;42.266;24.944;2024-01-25T05:41:10;4.37;;;2.70;;
7375;SDS011;3728;42.266;24.944;2024-01-25T05:43:37;3.87;;;2.30;;
7375;SDS011;3728;42.266;24.944;2024-01-25T05:46:04;4.63;;;2.23;;
7375;SDS011;3728;42.266;24.944;2024-01-25T05:48:31;9.83;;;4.47;;
7375;SDS011;3728;42.266;24.944;2024-01-25T05:50:58;5.80;;;2.43;;
7375;SDS011;3728;42.266;24.944;2024-01-25T05:53:25;4.27;;;3.27;;
7375;SDS011;3728;42.266;24.944;2024-01-25T05:55:52;3.70;;;2.37;;
7375;SDS011;3728;42.266;24.944;2024-01-25T05:58:20;4.03;;;1.87;;
7375;SDS011;3728;42.266;24.944;2024-01-25T06:00:47;2.97;;;2.17;;
7375;SDS011;3728;42.266;24.944;2024-01-25T06:03:14;4.13;;;2.33;;
7375;SDS011;3728;42.266;24.944;2024-01-25T06:05:42;1.90;;;1.70;;
7375;SDS011;3728;42.266;24.944;2024-01-25T06:08:09;2.60;;;1.67;;
7375;SDS011;3728;42.266;24.944;2024-01-25T06:10:39;2.30;;;2.10;;
7375;SDS011;3728;42.266;24.944;2024-01-25T06:13:06;4.77;;;2.10;;
7375;SDS011;3728;42.266;24.944;2024-01-25T06:15:34;2.73;;;2.00;;
7375;SDS011;3728;42.266;24.944;2024-01-25T06:18:01;2.37;;;1.87;;
7375;SDS011;3728;42.266;24.944;2024-01-25T06:20:29;3.73;;;1.77;;
7375;SDS011;3728;42.266;24.944;2024-01-25T06:22:57;2.17;;;1.97;;
7375;SDS011;3728;42.266;24.944;2024-01-25T06:25:24;3.50;;;2.03;;
7375;SDS011;3728;42.266;24.944;2024-01-25T06:27:53;3.63;;;1.97;;
7375;SDS011;3728;42.266;24.944;2024-01-25T06:30:21;2.20;;;2.00;;
7375;SDS011;3728;42.266;24.944;2024-01-25T06:32:48;2.83;;;2.33;;
7375;SDS011;3728;42.266;24.944;2024-01-25T06:35:16;2.93;;;2.27;;
7375;SDS011;3728;42.266;24.944;2024-01-25T06:37:45;3.60;;;1.53;;
7375;SDS011;3728;42.266;24.944;2024-01-25T06:40:12;3.00;;;1.77;;
7375;SDS011;3728;42.266;24.944;2024-01-25T06:42:39;2.17;;;1.70;;
7375;SDS011;3728;42.266;24.944;2024-01-25T06:45:07;4.13;;;1.80;;
7375;SDS011;3728;42.266;24.944;2024-01-25T06:47:37;6.73;;;3.37;;
7375;SDS011;3728;42.266;24.944;2024-01-25T06:50:04;3.73;;;1.80;;
7375;SDS011;3728;42.266;24.944;2024-01-25T06:52:33;2.70;;;1.80;;
7375;SDS011;3728;42.266;24.944;2024-01-25T06:55:00;1.90;;;1.50;;
7375;SDS011;3728;42.266;24.944;2024-01-25T06:57:32;2.33;;;2.03;;
7375;SDS011;3728;42.266;24.944;2024-01-25T06:59:59;3.10;;;2.00;;
7375;SDS011;3728;42.266;24.944;2024-01-25T07:02:27;2.40;;;2.20;;
7375;SDS011;3728;42.266;24.944;2024-01-25T07:04:58;1.50;;;1.40;;
7375;SDS011;3728;42.266;24.944;2024-01-25T07:07:26;2.57;;;1.73;;
7375;SDS011;3728;42.266;24.944;2024-01-25T07:09:53;3.10;;;1.70;;
7375;SDS011;3728;42.266;24.944;2024-01-25T07:12:20;2.87;;;2.00;;
7375;SDS011;3728;42.266;24.944;2024-01-25T07:14:47;2.47;;;1.87;;
7375;SDS011;3728;42.266;24.944;2024-01-25T07:17:14;3.77;;;1.90;;
7375;SDS011;3728;42.266;24.944;2024-01-25T07:19:42;5.23;;;2.40;;
7375;SDS011;3728;42.266;24.944;2024-01-25T07:22:09;4.23;;;2.70;;
7375;SDS011;3728;42.266;24.944;2024-01-25T07:24:38;2.33;;;1.77;;
7375;SDS011;3728;42.266;24.944;2024-01-25T07:27:07;2.43;;;1.60;;
7375;SDS011;3728;42.266;24.944;2024-01-25T07:29:36;3.40;;;1.80;;
7375;SDS011;3728;42.266;24.944;2024-01-25T07:32:04;3.70;;;1.80;;
7375;SDS011;3728;42.266;24.944;2024-01-25T07:34:31;2.40;;;1.60;;
7375;SDS011;3728;42.266;24.944;2024-01-25T07:36:59;2.10;;;1.90;;
7375;SDS011;3728;42.266;24.944;2024-01-25T07:39:26;3.03;;;2.10;;
7375;SDS011;3728;42.266;24.944;2024-01-25T07:41:53;4.07;;;3.77;;
7375;SDS011;3728;42.266;24.944;2024-01-25T07:44:23;4.70;;;2.07;;
7375;SDS011;3728;42.266;24.944;2024-01-25T07:46:50;3.47;;;1.97;;
7375;SDS011;3728;42.266;24.944;2024-01-25T07:49:17;4.17;;;2.13;;
7375;SDS011;3728;42.266;24.944;2024-01-25T07:51:44;3.37;;;1.80;;
7375;SDS011;3728;42.266;24.944;2024-01-25T07:54:13;4.07;;;1.80;;
7375;SDS011;3728;42.266;24.944;2024-01-25T07:56:42;6.10;;;1.93;;
7375;SDS011;3728;42.266;24.944;2024-01-25T07:59:09;2.93;;;1.73;;
7375;SDS011;3728;42.266;24.944;2024-01-25T08:01:39;4.97;;;3.67;;
7375;SDS011;3728;42.266;24.944;2024-01-25T08:04:07;2.47;;;1.83;;
7375;SDS011;3728;42.266;24.944;2024-01-25T08:06:41;3.67;;;1.90;;
7375;SDS011;3728;42.266;24.944;2024-01-25T08:09:13;3.37;;;1.87;;
7375;SDS011;3728;42.266;24.944;2024-01-25T08:11:42;6.80;;;2.20;;
7375;SDS011;3728;42.266;24.944;2024-01-25T08:14:09;3.17;;;1.53;;
7375;SDS011;3728;42.266;24.944;2024-01-25T08:16:38;3.00;;;2.10;;
7375;SDS011;3728;42.266;24.944;2024-01-25T08:19:05;3.97;;;2.30;;
7375;SDS011;3728;42.266;24.944;2024-01-25T08:21:33;4.37;;;2.10;;
7375;SDS011;3728;42.266;24.944;2024-01-25T08:24:02;5.23;;;2.67;;
7375;SDS011;3728;42.266;24.944;2024-01-25T08:26:32;3.70;;;2.33;;
7375;SDS011;3728;42.266;24.944;2024-01-25T08:28:59;5.60;;;2.50;;
7375;SDS011;3728;42.266;24.944;2024-01-25T08:31:27;4.20;;;2.30;;
7375;SDS011;3728;42.266;24.944;2024-01-25T08:33:54;3.30;;;2.10;;
7375;SDS011;3728;42.266;24.944;2024-01-25T08:36:22;3.60;;;2.10;;
7375;SDS011;3728;42.266;24.944;2024-01-25T08:38:49;6.73;;;2.00;;
7375;SDS011;3728;42.266;24.944;2024-01-25T08:41:16;4.00;;;2.37;;
7375;SDS011;3728;42.266;24.944;2024-01-25T08:43:44;2.33;;;1.90;;
7375;SDS011;3728;42.266;24.944;2024-01-25T08:46:12;3.67;;;2.20;;
7375;SDS011;3728;42.266;24.944;2024-01-25T08:48:42;4.20;;;2.50;;
7375;SDS011;3728;42.266;24.944;2024-01-25T08:51:09;4.50;;;1.90;;
7375;SDS011;3728;42.266;24.944;2024-01-25T08:53:37;4.67;;;3.97;;
7375;SDS011;3728;42.266;24.944;2024-01-25T08:56:04;3.13;;;2.23;;
7375;SDS011;3728;42.266;24.944;2024-01-25T08:58:32;3.00;;;2.43;;
7375;SDS011;3728;42.266;24.944;2024-01-25T09:00:59;5.87;;;2.37;;
7375;SDS011;3728;42.266;24.944;2024-01-25T09:03:27;3.90;;;1.70;;
7375;SDS011;3728;42.266;24.944;2024-01-25T09:05:55;6.23;;;2.43;;
7375;SDS011;3728;42.266;24.944;2024-01-25T09:08:23;8.80;;;2.53;;
7375;SDS011;3728;42.266;24.944;2024-01-25T09:10:50;2.57;;;2.00;;
7375;SDS011;3728;42.266;24.944;2024-01-25T09:13:18;4.83;;;1.97;;
7375;SDS011;3728;42.266;24.944;2024-01-25T09:15:45;3.53;;;2.40;;
7375;SDS011;3728;42.266;24.944;2024-01-25T09:18:14;6.03;;;5.13;;
7375;SDS011;3728;42.266;24.944;2024-01-25T09:20:41;2.77;;;1.90;;
7375;SDS011;3728;42.266;24.944;2024-01-25T09:23:14;5.43;;;2.87;;
7375;SDS011;3728;42.266;24.944;2024-01-25T09:25:44;3.60;;;2.03;;
7375;SDS011;3728;42.266;24.944;2024-01-25T09:28:12;3.80;;;2.03;;
7375;SDS011;3728;42.266;24.944;2024-01-25T09:30:45;4.40;;;2.50;;
7375;SDS011;3728;42.266;24.944;2024-01-25T09:33:14;3.73;;;2.60;;
7375;SDS011;3728;42.266;24.944;2024-01-25T09:35:42;3.33;;;2.07;;
7375;SDS011;3728;42.266;24.944;2024-01-25T09:38:14;3.10;;;1.93;;
7375;SDS011;3728;42.266;24.944;2024-01-25T09:40:44;3.40;;;2.10;;
7375;SDS011;3728;42.266;24.944;2024-01-25T09:43:11;4.93;;;2.43;;
7375;SDS011;3728;42.266;24.944;2024-01-25T09:45:44;5.73;;;2.47;;
7375;SDS011;3728;42.266;24.944;2024-01-25T09:48:13;7.50;;;3.20;;
7375;SDS011;3728;42.266;24.944;2024-01-25T09:50:41;7.83;;;2.27;;
7375;SDS011;3728;42.266;24.944;2024-01-25T09:53:12;4.47;;;2.10;;
7375;SDS011;3728;42.266;24.944;2024-01-25T09:55:53;4.50;;;2.40;;
7375;SDS011;3728;42.266;24.944;2024-01-25T09:58:38;4.70;;;2.83;;
7375;SDS011;3728;42.266;24.944;2024-01-25T10:01:13;6.30;;;4.43;;
7375;SDS011;3728;42.266;24.944;2024-01-25T10:03:44;6.17;;;2.10;;
7375;SDS011;3728;42.266;24.944;2024-01-25T10:06:14;3.70;;;2.17;;
7375;SDS011;3728;42.266;24.944;2024-01-25T10:08:51;5.13;;;2.37;;
7375;SDS011;3728;42.266;24.944;2024-01-25T10:11:22;4.57;;;2.20;;
7375;SDS011;3728;42.266;24.944;2024-01-25T10:13:53;3.03;;;2.17;;
7375;SDS011;3728;42.266;24.944;2024-01-25T10:16:31;4.87;;;2.10;;
7375;SDS011;3728;42.266;24.944;2024-01-25T10:18:59;4.13;;;2.20;;
7375;SDS011;3728;42.266;24.944;2024-01-25T10:21:35;6.63;;;1.97;;
7375;SDS011;3728;42.266;24.944;2024-01-25T10:24:05;5.17;;;2.50;;
7375;SDS011;3728;42.266;24.944;2024-01-25T10:26:35;5.83;;;2.80;;
7375;SDS011;3728;42.266;24.944;2024-01-25T10:29:02;4.90;;;2.63;;
7375;SDS011;3728;42.266;24.944;2024-01-25T10:31:30;3.60;;;2.00;;
7375;SDS011;3728;42.266;24.944;2024-01-25T10:33:59;5.63;;;2.23;;
7375;SDS011;3728;42.266;24.944;2024-01-25T10:36:27;6.00;;;4.23;;
7375;SDS011;3728;42.266;24.944;2024-01-25T10:38:56;4.53;;;2.47;;
7375;SDS011;3728;42.266;24.944;2024-01-25T10:41:32;6.27;;;2.43;;
7375;SDS011;3728;42.266;24.944;2024-01-25T10:43:59;5.63;;;2.93;;
7375;SDS011;3728;42.266;24.944;2024-01-25T10:46:30;3.50;;;2.60;;
7375;SDS011;3728;42.266;24.944;2024-01-25T10:48:59;5.13;;;2.10;;
7375;SDS011;3728;42.266;24.944;2024-01-25T10:51:30;6.57;;;2.40;;
7375;SDS011;3728;42.266;24.944;2024-01-25T10:53:59;5.27;;;2.47;;
7375;SDS011;3728;42.266;24.944;2024-01-25T10:56:28;6.47;;;2.40;;
7375;SDS011;3728;42.266;24.944;2024-01-25T10:58:56;6.03;;;2.50;;
7375;SDS011;3728;42.266;24.944;2024-01-25T11:01:23;5.53;;;2.67;;
7375;SDS011;3728;42.266;24.944;2024-01-25T11:03:51;8.47;;;3.53;;
7375;SDS011;3728;42.266;24.944;2024-01-25T11:06:20;8.10;;;3.23;;
7375;SDS011;3728;42.266;24.944;2024-01-25T11:08:49;4.93;;;2.80;;
7375;SDS011;3728;42.266;24.944;2024-01-25T11:11:17;7.23;;;3.40;;
7375;SDS011;3728;42.266;24.944;2024-01-25T11:13:46;4.10;;;2.13;;
7375;SDS011;3728;42.266;24.944;2024-01-25T11:16:27;7.20;;;3.03;;
7375;SDS011;3728;42.266;24.944;2024-01-25T11:18:59;9.50;;;4.10;;
7375;SDS011;3728;42.266;24.944;2024-01-25T11:21:42;5.90;;;2.63;;
7375;SDS011;3728;42.266;24.944;2024-01-25T11:24:16;5.63;;;2.77;;
7375;SDS011;3728;42.266;24.944;2024-01-25T11:26:56;5.33;;;2.20;;
7375;SDS011;3728;42.266;24.944;2024-01-25T11:29:23;5.37;;;1.77;;
7375;SDS011;3728;42.266;24.944;2024-01-25T11:31:52;5.53;;;2.70;;
7375;SDS011;3728;42.266;24.944;2024-01-25T11:34:20;5.23;;;2.63;;
7375;SDS011;3728;42.266;24.944;2024-01-25T11:36:56;5.67;;;2.47;;
7375;SDS011;3728;42.266;24.944;2024-01-25T11:39:27;4.47;;;2.40;;
7375;SDS011;3728;42.266;24.944;2024-01-25T11:41:54;5.23;;;3.70;;
7375;SDS011;3728;42.266;24.944;2024-01-25T11:44:21;3.97;;;2.77;;
7375;SDS011;3728;42.266;24.944;2024-01-25T11:46:53;6.10;;;2.13;;
7375;SDS011;3728;42.266;24.944;2024-01-25T11:49:23;3.07;;;2.13;;
7375;SDS011;3728;42.266;24.944;2024-01-25T11:51:57;5.93;;;1.90;;
7375;SDS011;3728;42.266;24.944;2024-01-25T11:54:25;7.60;;;2.90;;
7375;SDS011;3728;42.266;24.944;2024-01-25T11:56:52;4.33;;;2.03;;
7375;SDS011;3728;42.266;24.944;2024-01-25T11:59:20;4.43;;;2.40;;
7375;SDS011;3728;42.266;24.944;2024-01-25T12:01:50;2.97;;;1.90;;
7375;SDS011;3728;42.266;24.944;2024-01-25T12:04:18;5.00;;;2.70;;
7375;SDS011;3728;42.266;24.944;2024-01-25T12:06:49;2.83;;;2.33;;
7375;SDS011;3728;42.266;24.944;2024-01-25T12:09:16;4.23;;;2.33;;
7375;SDS011;3728;42.266;24.944;2024-01-25T12:11:49;6.63;;;3.57;;
7375;SDS011;3728;42.266;24.944;2024-01-25T12:14:17;4.90;;;3.23;;
7375;SDS011;3728;42.266;24.944;2024-01-25T12:16:45;4.33;;;1.93;;
7375;SDS011;3728;42.266;24.944;2024-01-25T12:19:12;6.33;;;2.23;;
7375;SDS011;3728;42.266;24.944;2024-01-25T12:21:43;6.50;;;2.47;;
7375;SDS011;3728;42.266;24.944;2024-01-25T12:24:11;5.70;;;2.23;;
7375;SDS011;3728;42.266;24.944;2024-01-25T12:26:41;7.27;;;3.63;;
7375;SDS011;3728;42.266;24.944;2024-01-25T12:29:09;4.77;;;2.60;;
7375;SDS011;3728;42.266;24.944;2024-01-25T12:31:41;4.60;;;2.50;;
7375;SDS011;3728;42.266;24.944;2024-01-25T12:48:38;5.47;;;2.60;;
7375;SDS011;3728;42.266;24.944;2024-01-25T12:51:05;5.67;;;2.23;;
7375;SDS011;3728;42.266;24.944;2024-01-25T12:53:32;4.20;;;2.60;;
7375;SDS011;3728;42.266;24.944;2024-01-25T12:56:00;6.50;;;2.87;;
7375;SDS011;3728;42.266;24.944;2024-01-25T12:58:27;4.80;;;2.97;;
7375;SDS011;3728;42.266;24.944;2024-01-25T13:00:54;7.70;;;3.53;;
7375;SDS011;3728;42.266;24.944;2024-01-25T13:03:23;6.63;;;3.50;;
7375;SDS011;3728;42.266;24.944;2024-01-25T13:05:50;5.37;;;2.30;;
7375;SDS011;3728;42.266;24.944;2024-01-25T13:08:19;7.23;;;3.13;;
7375;SDS011;3728;42.266;24.944;2024-01-25T13:10:46;5.40;;;2.50;;
7375;SDS011;3728;42.266;24.944;2024-01-25T13:13:15;5.80;;;2.90;;
7375;SDS011;3728;42.266;24.944;2024-01-25T13:15:43;7.60;;;3.13;;
7375;SDS011;3728;42.266;24.944;2024-01-25T13:18:13;9.60;;;3.10;;
7375;SDS011;3728;42.266;24.944;2024-01-25T13:20:42;11.50;;;3.83;;
7375;SDS011;3728;42.266;24.944;2024-01-25T13:23:09;7.70;;;3.17;;
7375;SDS011;3728;42.266;24.944;2024-01-25T13:25:38;5.30;;;2.87;;
7375;SDS011;3728;42.266;24.944;2024-01-25T13:28:06;5.77;;;3.00;;
7375;SDS011;3728;42.266;24.944;2024-01-25T13:30:34;7.33;;;2.50;;
7375;SDS011;3728;42.266;24.944;2024-01-25T13:33:02;6.63;;;3.20;;
7375;SDS011;3728;42.266;24.944;2024-01-25T13:35:30;8.30;;;3.77;;
7375;SDS011;3728;42.266;24.944;2024-01-25T13:37:58;8.07;;;3.40;;
7375;SDS011;3728;42.266;24.944;2024-01-25T13:40:29;8.57;;;3.23;;
7375;SDS011;3728;42.266;24.944;2024-01-25T13:42:56;5.97;;;3.30;;
7375;SDS011;3728;42.266;24.944;2024-01-25T13:45:24;5.87;;;3.07;;
7375;SDS011;3728;42.266;24.944;2024-01-25T13:47:53;7.70;;;2.93;;
7375;SDS011;3728;42.266;24.944;2024-01-25T13:50:21;6.23;;;3.37;;
7375;SDS011;3728;42.266;24.944;2024-01-25T13:52:51;5.83;;;2.83;;
7375;SDS011;3728;42.266;24.944;2024-01-25T13:55:21;7.00;;;2.63;;
7375;SDS011;3728;42.266;24.944;2024-01-25T13:57:56;5.00;;;2.63;;
7375;SDS011;3728;42.266;24.944;2024-01-25T14:00:23;7.43;;;2.93;;
7375;SDS011;3728;42.266;24.944;2024-01-25T14:02:53;9.87;;;3.73;;
7375;SDS011;3728;42.266;24.944;2024-01-25T14:05:23;10.83;;;5.43;;
7375;SDS011;3728;42.266;24.944;2024-01-25T14:07:50;12.37;;;6.00;;
7375;SDS011;3728;42.266;24.944;2024-01-25T14:10:17;7.40;;;4.80;;
7375;SDS011;3728;42.266;24.944;2024-01-25T14:12:46;10.93;;;5.20;;
7375;SDS011;3728;42.266;24.944;2024-01-25T14:15:14;11.53;;;6.10;;
7375;SDS011;3728;42.266;24.944;2024-01-25T14:17:42;8.37;;;6.37;;
7375;SDS011;3728;42.266;24.944;2024-01-25T14:20:09;6.33;;;3.97;;
7375;SDS011;3728;42.266;24.944;2024-01-25T14:22:37;7.20;;;3.57;;
7375;SDS011;3728;42.266;24.944;2024-01-25T14:25:04;8.00;;;3.77;;
7375;SDS011;3728;42.266;24.944;2024-01-25T14:27:32;6.23;;;3.30;;
7375;SDS011;3728;42.266;24.944;2024-01-25T14:30:01;9.47;;;3.47;;
7375;SDS011;3728;42.266;24.944;2024-01-25T14:32:30;10.60;;;3.63;;
7375;SDS011;3728;42.266;24.944;2024-01-25T14:34:59;8.60;;;2.40;;
7375;SDS011;3728;42.266;24.944;2024-01-25T14:37:27;11.70;;;3.33;;
7375;SDS011;3728;42.266;24.944;2024-01-25T14:39:58;9.07;;;2.93;;
7375;SDS011;3728;42.266;24.944;2024-01-25T14:42:45;4.70;;;2.93;;
7375;SDS011;3728;42.266;24.944;2024-01-25T14:45:12;7.17;;;2.83;;
7375;SDS011;3728;42.266;24.944;2024-01-25T14:47:40;6.87;;;3.00;;
7375;SDS011;3728;42.266;24.944;2024-01-25T14:50:07;7.27;;;3.63;;
7375;SDS011;3728;42.266;24.944;2024-01-25T14:52:34;16.63;;;9.30;;
7375;SDS011;3728;42.266;24.944;2024-01-25T14:55:02;9.63;;;6.70;;
7375;SDS011;3728;42.266;24.944;2024-01-25T14:57:31;10.57;;;4.53;;
7375;SDS011;3728;42.266;24.944;2024-01-25T14:59:58;8.53;;;3.10;;
7375;SDS011;3728;42.266;24.944;2024-01-25T15:02:25;6.23;;;3.43;;
7375;SDS011;3728;42.266;24.944;2024-01-25T15:04:54;10.30;;;3.80;;
7375;SDS011;3728;42.266;24.944;2024-01-25T15:07:22;5.87;;;3.67;;
7375;SDS011;3728;42.266;24.944;2024-01-25T15:09:50;7.90;;;3.77;;
7375;SDS011;3728;42.266;24.944;2024-01-25T15:12:17;7.50;;;4.57;;
7375;SDS011;3728;42.266;24.944;2024-01-25T15:14:49;8.40;;;4.37;;
7375;SDS011;3728;42.266;24.944;2024-01-25T15:17:18;11.07;;;3.63;;
7375;SDS011;3728;42.266;24.944;2024-01-25T15:19:45;8.50;;;4.47;;